sensor_id;sensor_type;location;lat;lon;timestamp;P1;durP1;ratioP1;P2;durP2;ratioP2
3817;SDS011;1924;48.078;11.516;2023-12-04T00:00:48;24.40;;;0.90;;
3817;SDS011;1924;48.078;11.516;2023-12-04T00:03:14;24.50;;;0.90;;
3817;SDS011;1924;48.078;11.516;2023-12-04T00:05:43;24.47;;;0.90;;
3817;SDS011;1924;48.078;11.516;2023-12-04T00:08:10;24.50;;;0.90;;
3817;SDS011;1924;48.078;11.516;2023-12-04T00:10:37;24.30;;;0.97;;
3817;SDS011;1924;48.078;11.516;2023-12-04T00:13:03;24.37;;;0.90;;
3817;SDS011;1924;48.078;11.516;2023-12-04T00:15:30;24.40;;;0.90;;
3817;SDS011;1924;48.078;11.516;2023-12-04T00:17:57;24.50;;;0.90;;
3817;SDS011;1924;48.078;11.516;2023-12-04T00:20:23;24.50;;;0.90;;
3817;SDS011;1924;48.078;11.516;2023-12-04T00:22:51;24.50;;;0.90;;
3817;SDS011;1924;48.078;11.516;2023-12-04T00:25:19;24.30;;;0.97;;
3817;SDS011;1924;48.078;11.516;2023-12-04T00:27:46;24.50;;;1.00;;
3817;SDS011;1924;48.078;11.516;2023-12-04T00:30:13;24.40;;;0.97;;
3817;SDS011;1924;48.078;11.516;2023-12-04T00:32:39;24.40;;;1.00;;
3817;SDS011;1924;48.078;11.516;2023-12-04T00:35:06;24.40;;;1.00;;
3817;SDS011;1924;48.078;11.516;2023-12-04T00:37:33;24.20;;;1.00;;
3817;SDS011;1924;48.078;11.516;2023-12-04T00:40:05;24.20;;;1.00;;
3817;SDS011;1924;48.078;11.516;2023-12-04T00:42:32;24.20;;;0.97;;
3817;SDS011;1924;48.078;11.516;2023-12-04T00:44:59;24.30;;;0.90;;
3817;SDS011;1924;48.078;11.516;2023-12-04T00:47:28;24.30;;;0.90;;
3817;SDS011;1924;48.078;11.516;2023-12-04T00:49:54;24.20;;;0.90;;
3817;SDS011;1924;48.078;11.516;2023-12-04T00:52:21;24.10;;;0.90;;
3817;SDS011;1924;48.078;11.516;2023-12-04T00:54:48;24.30;;;1.00;;
3817;SDS011;1924;48.078;11.516;2023-12-04T00:57:16;24.10;;;0.93;;
3817;SDS011;1924;48.078;11.516;2023-12-04T00:59:43;24.20;;;0.93;;
3817;SDS011;1924;48.078;11.516;2023-12-04T01:02:10;24.20;;;1.00;;
3817;SDS011;1924;48.078;11.516;2023-12-04T01:04:39;24.10;;;0.90;;
3817;SDS011;1924;48.078;11.516;2023-12-04T01:07:06;24.10;;;0.90;;
3817;SDS011;1924;48.078;11.516;2023-12-04T01:09:34;24.10;;;0.97;;
3817;SDS011;1924;48.078;11.516;2023-12-04T01:12:01;24.10;;;0.93;;
3817;SDS011;1924;48.078;11.516;2023-12-04T01:14:30;24.23;;;1.00;;
3817;SDS011;1924;48.078;11.516;2023-12-04T01:16:57;24.20;;;1.10;;
3817;SDS011;1924;48.078;11.516;2023-12-04T01:19:24;24.10;;;1.00;;
3817;SDS011;1924;48.078;11.516;2023-12-04T01:21:51;24.00;;;1.00;;
3817;SDS011;1924;48.078;11.516;2023-12-04T01:24:18;24.20;;;1.00;;
3817;SDS011;1924;48.078;11.516;2023-12-04T01:26:45;24.17;;;1.00;;
3817;SDS011;1924;48.078;11.516;2023-12-04T01:29:12;24.07;;;0.97;;
3817;SDS011;1924;48.078;11.516;2023-12-04T01:31:40;24.10;;;0.90;;
3817;SDS011;1924;48.078;11.516;2023-12-04T01:34:06;24.03;;;0.90;;
3817;SDS011;1924;48.078;11.516;2023-12-04T01:36:33;24.00;;;0.90;;
3817;SDS011;1924;48.078;11.516;2023-12-04T01:39:00;23.97;;;0.90;;
3817;SDS011;1924;48.078;11.516;2023-12-04T01:41:28;23.93;;;0.90;;
3817;SDS011;1924;48.078;11.516;2023-12-04T01:43:55;24.07;;;0.90;;
3817;SDS011;1924;48.078;11.516;2023-12-04T01:46:22;24.03;;;0.90;;
3817;SDS011;1924;48.078;11.516;2023-12-04T01:48:50;24.00;;;1.00;;
3817;SDS011;1924;48.078;11.516;2023-12-04T01:51:17;24.00;;;0.90;;
3817;SDS011;1924;48.078;11.516;2023-12-04T01:53:45;23.90;;;0.90;;
3817;SDS011;1924;48.078;11.516;2023-12-04T01:56:13;23.90;;;0.90;;
3817;SDS011;1924;48.078;11.516;2023-12-04T01:58:41;24.03;;;0.90;;
3817;SDS011;1924;48.078;11.516;2023-12-04T02:01:08;23.90;;;1.00;;
3817;SDS011;1924;48.078;11.516;2023-12-04T02:03:36;23.90;;;1.00;;
3817;SDS011;1924;48.078;11.516;2023-12-04T02:06:04;23.97;;;0.90;;
3817;SDS011;1924;48.078;11.516;2023-12-04T02:08:32;23.90;;;1.00;;
3817;SDS011;1924;48.078;11.516;2023-12-04T02:10:59;24.00;;;1.00;;
3817;SDS011;1924;48.078;11.516;2023-12-04T02:13:26;24.07;;;1.00;;
3817;SDS011;1924;48.078;11.516;2023-12-04T02:15:53;24.00;;;1.00;;
3817;SDS011;1924;48.078;11.516;2023-12-04T02:18:21;24.00;;;1.00;;
3817;SDS011;1924;48.078;11.516;2023-12-04T02:20:49;23.97;;;1.00;;
3817;SDS011;1924;48.078;11.516;2023-12-04T02:23:17;24.00;;;1.00;;
3817;SDS011;1924;48.078;11.516;2023-12-04T02:25:45;23.97;;;1.00;;
3817;SDS011;1924;48.078;11.516;2023-12-04T02:28:13;23.70;;;1.00;;
3817;SDS011;1924;48.078;11.516;2023-12-04T05:01:46;23.10;;;0.90;;
3817;SDS011;1924;48.078;11.516;2023-12-04T05:04:13;23.07;;;0.90;;
3817;SDS011;1924;48.078;11.516;2023-12-04T05:06:39;23.17;;;0.90;;
3817;SDS011;1924;48.078;11.516;2023-12-04T05:09:06;23.00;;;0.90;;
3817;SDS011;1924;48.078;11.516;2023-12-04T05:11:33;23.10;;;0.90;;
3817;SDS011;1924;48.078;11.516;2023-12-04T05:14:00;22.90;;;0.90;;
3817;SDS011;1924;48.078;11.516;2023-12-04T05:16:27;23.10;;;0.90;;
3817;SDS011;1924;48.078;11.516;2023-12-04T05:18:55;22.90;;;0.90;;
3817;SDS011;1924;48.078;11.516;2023-12-04T05:21:21;22.90;;;0.90;;
3817;SDS011;1924;48.078;11.516;2023-12-04T05:23:48;22.97;;;0.90;;
3817;SDS011;1924;48.078;11.516;2023-12-04T05:26:15;23.00;;;0.90;;
3817;SDS011;1924;48.078;11.516;2023-12-04T05:28:42;23.00;;;0.90;;
3817;SDS011;1924;48.078;11.516;2023-12-04T05:31:09;23.00;;;0.90;;
3817;SDS011;1924;48.078;11.516;2023-12-04T05:33:35;22.93;;;0.90;;
3817;SDS011;1924;48.078;11.516;2023-12-04T05:36:05;23.00;;;0.90;;
3817;SDS011;1924;48.078;11.516;2023-12-04T05:38:32;23.03;;;0.90;;
3817;SDS011;1924;48.078;11.516;2023-12-04T05:40:59;22.93;;;0.90;;
3817;SDS011;1924;48.078;11.516;2023-12-04T05:43:26;22.87;;;0.90;;
3817;SDS011;1924;48.078;11.516;2023-12-04T05:45:52;22.77;;;0.90;;
3817;SDS011;1924;48.078;11.516;2023-12-04T05:48:19;22.93;;;0.90;;
3817;SDS011;1924;48.078;11.516;2023-12-04T05:50:46;22.80;;;0.90;;
3817;SDS011;1924;48.078;11.516;2023-12-04T05:53:14;22.97;;;0.90;;
3817;SDS011;1924;48.078;11.516;2023-12-04T05:55:41;22.80;;;0.90;;
3817;SDS011;1924;48.078;11.516;2023-12-04T05:58:07;22.97;;;0.90;;
3817;SDS011;1924;48.078;11.516;2023-12-04T06:00:34;22.80;;;0.90;;
3817;SDS011;1924;48.078;11.516;2023-12-04T06:03:01;22.97;;;0.90;;
3817;SDS011;1924;48.078;11.516;2023-12-04T06:05:27;22.97;;;0.90;;
3817;SDS011;1924;48.078;11.516;2023-12-04T06:07:54;23.00;;;0.90;;
3817;SDS011;1924;48.078;11.516;2023-12-04T06:10:24;22.80;;;0.90;;
3817;SDS011;1924;48.078;11.516;2023-12-04T06:12:51;23.00;;;0.90;;
3817;SDS011;1924;48.078;11.516;2023-12-04T06:15:17;22.90;;;0.90;;
3817;SDS011;1924;48.078;11.516;2023-12-04T06:17:44;23.10;;;0.90;;
3817;SDS011;1924;48.078;11.516;2023-12-04T06:20:11;22.80;;;0.90;;
3817;SDS011;1924;48.078;11.516;2023-12-04T06:22:38;22.97;;;0.90;;
3817;SDS011;1924;48.078;11.516;2023-12-04T06:25:06;23.03;;;0.90;;
3817;SDS011;1924;48.078;11.516;2023-12-04T06:27:35;22.97;;;0.90;;
3817;SDS011;1924;48.078;11.516;2023-12-04T06:30:04;23.00;;;0.90;;
3817;SDS011;1924;48.078;11.516;2023-12-04T06:32:32;23.03;;;0.90;;
3817;SDS011;1924;48.078;11.516;2023-12-04T06:34:59;23.07;;;0.90;;
3817;SDS011;1924;48.078;11.516;2023-12-04T06:37:26;22.90;;;0.90;;
3817;SDS011;1924;48.078;11.516;2023-12-04T06:39:53;23.10;;;0.90;;
3817;SDS011;1924;48.078;11.516;2023-12-04T06:42:25;23.00;;;0.90;;
3817;SDS011;1924;48.078;11.516;2023-12-04T06:44:54;23.00;;;0.90;;
3817;SDS011;1924;48.078;11.516;2023-12-04T06:47:22;22.97;;;0.90;;
3817;SDS011;1924;48.078;11.516;2023-12-04T06:49:49;23.10;;;0.90;;
3817;SDS011;1924;48.078;11.516;2023-12-04T06:52:16;22.90;;;0.90;;
3817;SDS011;1924;48.078;11.516;2023-12-04T06:54:43;23.10;;;0.90;;
3817;SDS011;1924;48.078;11.516;2023-12-04T06:57:09;23.00;;;0.90;;
3817;SDS011;1924;48.078;11.516;2023-12-04T06:59:38;23.00;;;0.90;;
3817;SDS011;1924;48.078;11.516;2023-12-04T07:02:06;23.00;;;0.90;;
3817;SDS011;1924;48.078;11.516;2023-12-04T07:04:33;23.00;;;0.90;;
3817;SDS011;1924;48.078;11.516;2023-12-04T07:07:00;23.13;;;0.90;;
3817;SDS011;1924;48.078;11.516;2023-12-04T07:09:30;23.20;;;0.90;;
3817;SDS011;1924;48.078;11.516;2023-12-04T07:11:56;23.20;;;0.90;;
3817;SDS011;1924;48.078;11.516;2023-12-04T07:14:23;23.20;;;0.90;;
3817;SDS011;1924;48.078;11.516;2023-12-04T07:16:50;23.30;;;0.90;;
3817;SDS011;1924;48.078;11.516;2023-12-04T07:19:18;23.30;;;0.90;;
3817;SDS011;1924;48.078;11.516;2023-12-04T07:21:46;23.20;;;0.90;;
3817;SDS011;1924;48.078;11.516;2023-12-04T07:24:12;23.20;;;0.90;;
3817;SDS011;1924;48.078;11.516;2023-12-04T07:26:39;23.20;;;0.90;;
3817;SDS011;1924;48.078;11.516;2023-12-04T07:29:06;23.10;;;0.90;;
3817;SDS011;1924;48.078;11.516;2023-12-04T07:31:33;23.10;;;0.90;;
3817;SDS011;1924;48.078;11.516;2023-12-04T07:34:00;23.10;;;0.90;;
3817;SDS011;1924;48.078;11.516;2023-12-04T07:36:28;23.00;;;0.90;;
3817;SDS011;1924;48.078;11.516;2023-12-04T07:38:55;23.00;;;0.90;;
3817;SDS011;1924;48.078;11.516;2023-12-04T07:41:22;23.00;;;0.90;;
3817;SDS011;1924;48.078;11.516;2023-12-04T07:43:49;23.07;;;0.90;;
3817;SDS011;1924;48.078;11.516;2023-12-04T07:46:16;23.17;;;0.90;;
3817;SDS011;1924;48.078;11.516;2023-12-04T07:48:43;23.07;;;0.90;;
3817;SDS011;1924;48.078;11.516;2023-12-04T07:51:10;22.90;;;0.90;;
3817;SDS011;1924;48.078;11.516;2023-12-04T07:53:38;22.97;;;0.90;;
3817;SDS011;1924;48.078;11.516;2023-12-04T07:56:05;23.00;;;0.90;;
3817;SDS011;1924;48.078;11.516;2023-12-04T07:58:32;22.90;;;0.90;;
3817;SDS011;1924;48.078;11.516;2023-12-04T08:00:59;23.00;;;0.90;;
3817;SDS011;1924;48.078;11.516;2023-12-04T08:03:26;23.10;;;0.90;;
3817;SDS011;1924;48.078;11.516;2023-12-04T08:05:53;23.10;;;0.90;;
3817;SDS011;1924;48.078;11.516;2023-12-04T08:08:20;23.10;;;0.90;;
3817;SDS011;1924;48.078;11.516;2023-12-04T08:10:50;23.17;;;0.87;;
3817;SDS011;1924;48.078;11.516;2023-12-04T08:13:17;23.10;;;0.90;;
3817;SDS011;1924;48.078;11.516;2023-12-04T08:15:43;23.20;;;0.90;;
3817;SDS011;1924;48.078;11.516;2023-12-04T08:18:10;23.20;;;0.90;;
3817;SDS011;1924;48.078;11.516;2023-12-04T08:20:37;23.30;;;0.90;;
3817;SDS011;1924;48.078;11.516;2023-12-04T08:23:04;23.30;;;0.90;;
3817;SDS011;1924;48.078;11.516;2023-12-04T08:25:31;23.20;;;0.83;;
3817;SDS011;1924;48.078;11.516;2023-12-04T08:27:59;23.10;;;0.90;;
3817;SDS011;1924;48.078;11.516;2023-12-04T08:30:26;23.10;;;0.90;;
3817;SDS011;1924;48.078;11.516;2023-12-04T08:32:53;23.20;;;0.90;;
3817;SDS011;1924;48.078;11.516;2023-12-04T08:35:20;23.17;;;0.90;;
3817;SDS011;1924;48.078;11.516;2023-12-04T08:37:47;23.20;;;0.90;;
3817;SDS011;1924;48.078;11.516;2023-12-04T08:40:13;23.30;;;0.90;;
3817;SDS011;1924;48.078;11.516;2023-12-04T08:42:40;23.53;;;0.90;;
3817;SDS011;1924;48.078;11.516;2023-12-04T08:45:09;23.70;;;0.90;;
3817;SDS011;1924;48.078;11.516;2023-12-04T08:47:36;23.80;;;0.90;;
3817;SDS011;1924;48.078;11.516;2023-12-04T08:50:03;23.80;;;0.90;;
3817;SDS011;1924;48.078;11.516;2023-12-04T08:52:30;23.90;;;0.90;;
3817;SDS011;1924;48.078;11.516;2023-12-04T08:54:57;24.00;;;0.90;;
3817;SDS011;1924;48.078;11.516;2023-12-04T08:57:25;24.00;;;0.90;;
3817;SDS011;1924;48.078;11.516;2023-12-04T08:59:52;24.10;;;0.90;;
3817;SDS011;1924;48.078;11.516;2023-12-04T09:02:20;24.30;;;0.90;;
3817;SDS011;1924;48.078;11.516;2023-12-04T09:04:47;24.40;;;0.90;;
3817;SDS011;1924;48.078;11.516;2023-12-04T09:07:14;24.30;;;0.90;;
3817;SDS011;1924;48.078;11.516;2023-12-04T09:09:40;24.30;;;0.90;;
3817;SDS011;1924;48.078;11.516;2023-12-04T09:12:11;24.57;;;0.90;;
3817;SDS011;1924;48.078;11.516;2023-12-04T09:14:38;24.30;;;0.90;;
3817;SDS011;1924;48.078;11.516;2023-12-04T09:17:04;24.60;;;0.90;;
3817;SDS011;1924;48.078;11.516;2023-12-04T09:19:33;24.60;;;0.90;;
3817;SDS011;1924;48.078;11.516;2023-12-04T09:21:59;24.67;;;0.90;;
3817;SDS011;1924;48.078;11.516;2023-12-04T09:24:26;24.70;;;0.90;;
3817;SDS011;1924;48.078;11.516;2023-12-04T09:26:53;24.77;;;0.90;;
3817;SDS011;1924;48.078;11.516;2023-12-04T09:29:20;24.53;;;0.90;;
3817;SDS011;1924;48.078;11.516;2023-12-04T09:31:49;24.87;;;0.90;;
3817;SDS011;1924;48.078;11.516;2023-12-04T09:34:16;24.80;;;0.90;;
3817;SDS011;1924;48.078;11.516;2023-12-04T09:36:46;24.90;;;0.90;;
3817;SDS011;1924;48.078;11.516;2023-12-04T09:39:13;25.00;;;0.90;;
3817;SDS011;1924;48.078;11.516;2023-12-04T09:41:40;25.07;;;0.90;;
3817;SDS011;1924;48.078;11.516;2023-12-04T09:44:08;25.10;;;0.90;;
3817;SDS011;1924;48.078;11.516;2023-12-04T09:46:36;25.10;;;0.90;;
3817;SDS011;1924;48.078;11.516;2023-12-04T09:49:04;25.10;;;0.90;;
3817;SDS011;1924;48.078;11.516;2023-12-04T09:51:31;25.20;;;0.90;;
3817;SDS011;1924;48.078;11.516;2023-12-04T09:54:01;25.10;;;0.90;;
3817;SDS011;1924;48.078;11.516;2023-12-04T09:56:29;25.10;;;0.90;;
3817;SDS011;1924;48.078;11.516;2023-12-04T09:58:58;25.10;;;0.90;;
3817;SDS011;1924;48.078;11.516;2023-12-04T10:01:26;24.93;;;0.90;;
3817;SDS011;1924;48.078;11.516;2023-12-04T10:03:55;25.07;;;0.90;;
3817;SDS011;1924;48.078;11.516;2023-12-04T10:06:23;25.00;;;0.90;;
3817;SDS011;1924;48.078;11.516;2023-12-04T10:08:52;25.00;;;0.90;;
3817;SDS011;1924;48.078;11.516;2023-12-04T10:11:21;24.90;;;0.90;;
3817;SDS011;1924;48.078;11.516;2023-12-04T10:13:48;25.20;;;0.90;;
3817;SDS011;1924;48.078;11.516;2023-12-04T10:16:15;25.10;;;0.90;;
3817;SDS011;1924;48.078;11.516;2023-12-04T10:18:58;25.37;;;0.90;;
3817;SDS011;1924;48.078;11.516;2023-12-04T10:21:40;25.50;;;0.90;;
3817;SDS011;1924;48.078;11.516;2023-12-04T10:24:07;25.50;;;0.90;;
3817;SDS011;1924;48.078;11.516;2023-12-04T10:26:35;25.77;;;0.90;;
3817;SDS011;1924;48.078;11.516;2023-12-04T10:29:03;25.80;;;0.90;;
3817;SDS011;1924;48.078;11.516;2023-12-04T10:31:32;25.90;;;0.90;;
3817;SDS011;1924;48.078;11.516;2023-12-04T10:33:59;26.10;;;0.93;;
3817;SDS011;1924;48.078;11.516;2023-12-04T10:36:26;26.10;;;0.90;;
3817;SDS011;1924;48.078;11.516;2023-12-04T10:38:57;26.17;;;0.90;;
3817;SDS011;1924;48.078;11.516;2023-12-04T10:41:25;26.10;;;0.90;;
3817;SDS011;1924;48.078;11.516;2023-12-04T10:43:53;26.10;;;0.90;;
3817;SDS011;1924;48.078;11.516;2023-12-04T10:46:22;26.00;;;0.90;;
3817;SDS011;1924;48.078;11.516;2023-12-04T10:48:50;26.20;;;0.90;;
3817;SDS011;1924;48.078;11.516;2023-12-04T10:51:17;26.20;;;0.90;;
3817;SDS011;1924;48.078;11.516;2023-12-04T10:53:46;26.30;;;0.90;;
3817;SDS011;1924;48.078;11.516;2023-12-04T10:56:15;26.30;;;0.90;;
3817;SDS011;1924;48.078;11.516;2023-12-04T10:58:50;26.10;;;0.90;;
3817;SDS011;1924;48.078;11.516;2023-12-04T11:01:19;26.20;;;0.90;;
3817;SDS011;1924;48.078;11.516;2023-12-04T11:03:48;26.20;;;0.90;;
3817;SDS011;1924;48.078;11.516;2023-12-04T11:06:18;26.27;;;0.90;;
3817;SDS011;1924;48.078;11.516;2023-12-04T11:08:48;26.00;;;0.90;;
3817;SDS011;1924;48.078;11.516;2023-12-04T11:11:19;26.20;;;0.90;;
3817;SDS011;1924;48.078;11.516;2023-12-04T11:13:54;25.90;;;0.90;;
3817;SDS011;1924;48.078;11.516;2023-12-04T11:16:26;26.10;;;0.90;;
3817;SDS011;1924;48.078;11.516;2023-12-04T11:18:56;26.07;;;0.90;;
3817;SDS011;1924;48.078;11.516;2023-12-04T11:21:33;25.90;;;0.90;;
3817;SDS011;1924;48.078;11.516;2023-12-04T11:24:00;25.90;;;0.90;;
3817;SDS011;1924;48.078;11.516;2023-12-04T11:26:29;25.90;;;0.90;;
3817;SDS011;1924;48.078;11.516;2023-12-04T11:28:58;25.90;;;0.90;;
3817;SDS011;1924;48.078;11.516;2023-12-04T11:31:26;25.80;;;0.90;;
3817;SDS011;1924;48.078;11.516;2023-12-04T11:33:53;25.80;;;0.90;;
3817;SDS011;1924;48.078;11.516;2023-12-04T11:36:27;25.60;;;0.90;;
3817;SDS011;1924;48.078;11.516;2023-12-04T11:38:54;25.70;;;0.90;;
3817;SDS011;1924;48.078;11.516;2023-12-04T11:41:21;25.60;;;0.90;;
3817;SDS011;1924;48.078;11.516;2023-12-04T11:43:50;25.67;;;0.90;;
3817;SDS011;1924;48.078;11.516;2023-12-04T11:46:20;25.50;;;0.90;;
3817;SDS011;1924;48.078;11.516;2023-12-04T11:48:48;25.40;;;0.90;;
3817;SDS011;1924;48.078;11.516;2023-12-04T11:51:44;25.40;;;0.90;;
3817;SDS011;1924;48.078;11.516;2023-12-04T11:54:16;25.40;;;0.90;;
3817;SDS011;1924;48.078;11.516;2023-12-04T11:56:55;25.40;;;0.90;;
3817;SDS011;1924;48.078;11.516;2023-12-04T11:59:24;25.30;;;0.90;;
3817;SDS011;1924;48.078;11.516;2023-12-04T12:01:53;25.30;;;0.90;;
3817;SDS011;1924;48.078;11.516;2023-12-04T12:04:21;25.40;;;0.90;;
3817;SDS011;1924;48.078;11.516;2023-12-04T12:06:48;25.40;;;0.90;;
3817;SDS011;1924;48.078;11.516;2023-12-04T12:09:15;25.30;;;0.90;;
3817;SDS011;1924;48.078;11.516;2023-12-04T12:11:42;25.40;;;0.90;;
3817;SDS011;1924;48.078;11.516;2023-12-04T12:14:10;25.50;;;0.90;;
3817;SDS011;1924;48.078;11.516;2023-12-04T12:16:36;25.50;;;0.90;;
3817;SDS011;1924;48.078;11.516;2023-12-04T12:19:05;25.63;;;0.90;;
3817;SDS011;1924;48.078;11.516;2023-12-04T12:21:33;25.67;;;0.90;;
3817;SDS011;1924;48.078;11.516;2023-12-04T12:23:59;25.60;;;0.90;;
3817;SDS011;1924;48.078;11.516;2023-12-04T12:26:27;25.60;;;0.90;;
3817;SDS011;1924;48.078;11.516;2023-12-04T12:28:54;25.70;;;0.90;;
3817;SDS011;1924;48.078;11.516;2023-12-04T12:31:22;25.70;;;0.90;;
3817;SDS011;1924;48.078;11.516;2023-12-04T12:33:48;25.50;;;0.90;;
3817;SDS011;1924;48.078;11.516;2023-12-04T12:36:16;25.60;;;0.90;;
3817;SDS011;1924;48.078;11.516;2023-12-04T12:38:43;25.70;;;0.90;;
3817;SDS011;1924;48.078;11.516;2023-12-04T12:41:14;25.70;;;0.90;;
3817;SDS011;1924;48.078;11.516;2023-12-04T12:43:45;25.70;;;0.90;;
3817;SDS011;1924;48.078;11.516;2023-12-04T12:46:12;25.60;;;0.90;;
3817;SDS011;1924;48.078;11.516;2023-12-04T12:48:39;25.80;;;0.90;;
3817;SDS011;1924;48.078;11.516;2023-12-04T12:51:10;25.70;;;0.90;;
3817;SDS011;1924;48.078;11.516;2023-12-04T12:53:40;25.90;;;0.90;;
3817;SDS011;1924;48.078;11.516;2023-12-04T12:56:07;26.00;;;0.90;;
3817;SDS011;1924;48.078;11.516;2023-12-04T12:58:34;26.00;;;0.90;;
3817;SDS011;1924;48.078;11.516;2023-12-04T13:01:03;26.00;;;0.90;;
3817;SDS011;1924;48.078;11.516;2023-12-04T13:03:30;26.10;;;0.90;;
3817;SDS011;1924;48.078;11.516;2023-12-04T13:05:57;26.00;;;0.90;;
3817;SDS011;1924;48.078;11.516;2023-12-04T13:08:24;26.10;;;0.90;;
3817;SDS011;1924;48.078;11.516;2023-12-04T13:10:54;25.90;;;0.90;;
3817;SDS011;1924;48.078;11.516;2023-12-04T13:13:21;26.00;;;0.90;;
3817;SDS011;1924;48.078;11.516;2023-12-04T13:15:47;25.73;;;0.90;;
3817;SDS011;1924;48.078;11.516;2023-12-04T13:18:14;25.90;;;0.90;;
3817;SDS011;1924;48.078;11.516;2023-12-04T13:20:41;25.90;;;0.90;;
3817;SDS011;1924;48.078;11.516;2023-12-04T13:23:08;25.70;;;0.90;;
3817;SDS011;1924;48.078;11.516;2023-12-04T13:25:35;25.60;;;0.90;;
3817;SDS011;1924;48.078;11.516;2023-12-04T13:28:03;25.60;;;0.90;;
3817;SDS011;1924;48.078;11.516;2023-12-04T13:30:30;25.50;;;0.90;;
3817;SDS011;1924;48.078;11.516;2023-12-04T13:32:59;25.40;;;0.83;;
3817;SDS011;1924;48.078;11.516;2023-12-04T13:35:27;25.70;;;0.90;;
3817;SDS011;1924;48.078;11.516;2023-12-04T13:37:53;25.70;;;0.90;;
3817;SDS011;1924;48.078;11.516;2023-12-04T13:40:21;25.50;;;0.90;;
3817;SDS011;1924;48.078;11.516;2023-12-04T13:42:51;25.60;;;0.90;;
3817;SDS011;1924;48.078;11.516;2023-12-04T13:45:38;25.50;;;0.90;;
3817;SDS011;1924;48.078;11.516;2023-12-04T13:48:05;25.67;;;0.90;;
3817;SDS011;1924;48.078;11.516;2023-12-04T13:50:32;25.50;;;0.90;;
3817;SDS011;1924;48.078;11.516;2023-12-04T13:52:59;25.50;;;0.80;;
3817;SDS011;1924;48.078;11.516;2023-12-04T13:55:26;25.43;;;0.90;;
3817;SDS011;1924;48.078;11.516;2023-12-04T13:58:09;25.40;;;0.90;;
3817;SDS011;1924;48.078;11.516;2023-12-04T14:00:57;25.50;;;0.90;;
3817;SDS011;1924;48.078;11.516;2023-12-04T14:03:28;25.40;;;0.90;;
3817;SDS011;1924;48.078;11.516;2023-12-04T14:05:55;25.40;;;0.90;;
3817;SDS011;1924;48.078;11.516;2023-12-04T14:08:22;25.50;;;0.90;;
3817;SDS011;1924;48.078;11.516;2023-12-04T14:10:51;25.57;;;0.90;;
3817;SDS011;1924;48.078;11.516;2023-12-04T14:13:19;25.57;;;0.83;;
3817;SDS011;1924;48.078;11.516;2023-12-04T14:15:47;25.50;;;0.90;;
3817;SDS011;1924;48.078;11.516;2023-12-04T14:18:15;25.60;;;0.90;;
3817;SDS011;1924;48.078;11.516;2023-12-04T14:20:42;25.50;;;0.90;;
3817;SDS011;1924;48.078;11.516;2023-12-04T14:23:08;25.50;;;0.90;;
3817;SDS011;1924;48.078;11.516;2023-12-04T14:25:35;25.50;;;0.90;;
3817;SDS011;1924;48.078;11.516;2023-12-04T14:28:02;25.60;;;0.90;;
3817;SDS011;1924;48.078;11.516;2023-12-04T14:30:29;25.40;;;0.90;;
3817;SDS011;1924;48.078;11.516;2023-12-04T14:32:55;25.40;;;0.87;;
3817;SDS011;1924;48.078;11.516;2023-12-04T14:35:23;25.47;;;0.90;;
3817;SDS011;1924;48.078;11.516;2023-12-04T14:37:50;25.50;;;0.87;;
3817;SDS011;1924;48.078;11.516;2023-12-04T14:40:17;25.40;;;0.87;;
3817;SDS011;1924;48.078;11.516;2023-12-04T14:42:45;25.30;;;0.80;;
3817;SDS011;1924;48.078;11.516;2023-12-04T14:45:12;25.30;;;0.90;;
3817;SDS011;1924;48.078;11.516;2023-12-04T14:47:41;25.30;;;0.90;;
3817;SDS011;1924;48.078;11.516;2023-12-04T14:50:09;25.30;;;0.90;;
3817;SDS011;1924;48.078;11.516;2023-12-04T14:52:38;25.30;;;0.90;;
3817;SDS011;1924;48.078;11.516;2023-12-04T14:55:11;25.20;;;0.90;;
3817;SDS011;1924;48.078;11.516;2023-12-04T14:57:52;25.40;;;0.90;;
3817;SDS011;1924;48.078;11.516;2023-12-04T15:00:44;25.27;;;0.90;;
3817;SDS011;1924;48.078;11.516;2023-12-04T15:03:42;25.37;;;0.90;;
3817;SDS011;1924;48.078;11.516;2023-12-04T15:06:22;25.20;;;0.90;;
3817;SDS011;1924;48.078;11.516;2023-12-04T15:09:09;25.10;;;0.80;;
3817;SDS011;1924;48.078;11.516;2023-12-04T15:11:59;25.10;;;0.83;;
3817;SDS011;1924;48.078;11.516;2023-12-04T15:14:43;25.20;;;0.90;;
3817;SDS011;1924;48.078;11.516;2023-12-04T15:17:16;25.20;;;0.90;;
3817;SDS011;1924;48.078;11.516;2023-12-04T15:19:54;25.20;;;0.90;;
3817;SDS011;1924;48.078;11.516;2023-12-04T15:22:39;25.20;;;0.90;;
3817;SDS011;1924;48.078;11.516;2023-12-04T15:25:08;25.10;;;0.90;;
3817;SDS011;1924;48.078;11.516;2023-12-04T15:27:36;25.00;;;0.90;;
3817;SDS011;1924;48.078;11.516;2023-12-04T15:30:02;24.90;;;0.90;;
3817;SDS011;1924;48.078;11.516;2023-12-04T15:32:31;25.10;;;0.90;;
3817;SDS011;1924;48.078;11.516;2023-12-04T15:34:57;25.10;;;0.90;;
3817;SDS011;1924;48.078;11.516;2023-12-04T15:37:24;25.00;;;0.90;;
3817;SDS011;1924;48.078;11.516;2023-12-04T15:39:50;25.10;;;0.90;;
3817;SDS011;1924;48.078;11.516;2023-12-04T15:42:19;25.10;;;0.90;;
3817;SDS011;1924;48.078;11.516;2023-12-04T15:44:45;25.00;;;0.90;;
3817;SDS011;1924;48.078;11.516;2023-12-04T15:47:12;25.13;;;0.90;;
3817;SDS011;1924;48.078;11.516;2023-12-04T15:49:37;25.10;;;0.90;;
3817;SDS011;1924;48.078;11.516;2023-12-04T15:52:04;25.10;;;0.90;;
3817;SDS011;1924;48.078;11.516;2023-12-04T15:54:37;24.90;;;0.90;;
3817;SDS011;1924;48.078;11.516;2023-12-04T15:57:04;25.07;;;0.87;;
3817;SDS011;1924;48.078;11.516;2023-12-04T15:59:38;24.90;;;0.80;;
3817;SDS011;1924;48.078;11.516;2023-12-04T16:02:24;25.00;;;0.90;;
3817;SDS011;1924;48.078;11.516;2023-12-04T16:04:49;24.90;;;0.90;;
3817;SDS011;1924;48.078;11.516;2023-12-04T16:07:16;25.00;;;0.90;;
3817;SDS011;1924;48.078;11.516;2023-12-04T16:09:43;25.00;;;0.90;;
3817;SDS011;1924;48.078;11.516;2023-12-04T16:12:11;24.90;;;0.90;;
3817;SDS011;1924;48.078;11.516;2023-12-04T16:14:39;25.00;;;0.90;;
3817;SDS011;1924;48.078;11.516;2023-12-04T16:17:07;24.80;;;0.90;;
3817;SDS011;1924;48.078;11.516;2023-12-04T16:19:33;24.90;;;0.90;;
3817;SDS011;1924;48.078;11.516;2023-12-04T16:22:02;24.97;;;0.90;;
3817;SDS011;1924;48.078;11.516;2023-12-04T16:24:29;25.00;;;0.90;;
3817;SDS011;1924;48.078;11.516;2023-12-04T16:26:56;24.90;;;0.90;;
3817;SDS011;1924;48.078;11.516;2023-12-04T16:29:25;24.90;;;0.90;;
3817;SDS011;1924;48.078;11.516;2023-12-04T16:31:59;24.97;;;0.90;;
3817;SDS011;1924;48.078;11.516;2023-12-04T16:34:28;24.90;;;0.90;;
3817;SDS011;1924;48.078;11.516;2023-12-04T16:36:55;24.77;;;0.90;;
3817;SDS011;1924;48.078;11.516;2023-12-04T16:39:23;24.90;;;0.90;;
3817;SDS011;1924;48.078;11.516;2023-12-04T16:41:51;24.80;;;0.90;;
3817;SDS011;1924;48.078;11.516;2023-12-04T16:44:19;25.00;;;0.90;;
3817;SDS011;1924;48.078;11.516;2023-12-04T16:46:46;25.00;;;0.90;;
3817;SDS011;1924;48.078;11.516;2023-12-04T16:49:21;24.80;;;0.90;;
3817;SDS011;1924;48.078;11.516;2023-12-04T16:51:52;24.80;;;0.90;;
3817;SDS011;1924;48.078;11.516;2023-12-04T16:54:18;24.80;;;0.90;;
3817;SDS011;1924;48.078;11.516;2023-12-04T16:56:46;24.80;;;0.90;;
3817;SDS011;1924;48.078;11.516;2023-12-04T16:59:15;24.87;;;0.80;;
3817;SDS011;1924;48.078;11.516;2023-12-04T17:01:43;24.80;;;0.90;;
3817;SDS011;1924;48.078;11.516;2023-12-04T17:04:10;24.80;;;0.90;;
3817;SDS011;1924;48.078;11.516;2023-12-04T17:06:39;24.80;;;0.90;;
3817;SDS011;1924;48.078;11.516;2023-12-04T17:09:06;24.80;;;0.90;;
3817;SDS011;1924;48.078;11.516;2023-12-04T17:11:39;24.80;;;0.90;;
3817;SDS011;1924;48.078;11.516;2023-12-04T17:14:06;24.70;;;0.87;;
3817;SDS011;1924;48.078;11.516;2023-12-04T17:16:33;24.80;;;0.83;;
3817;SDS011;1924;48.078;11.516;2023-12-04T17:19:00;24.80;;;0.80;;
3817;SDS011;1924;48.078;11.516;2023-12-04T17:21:27;24.80;;;0.90;;
3817;SDS011;1924;48.078;11.516;2023-12-04T17:23:55;24.87;;;0.90;;
3817;SDS011;1924;48.078;11.516;2023-12-04T17:26:22;24.80;;;0.90;;